Time;durP1;ratioP1;P1;durP2;ratioP2;P2;SDS_P1;SDS_P2;PMS_P1;PMS_P2;Temp;Humidity;BMP_temperature;BMP_pressure;BME280_temperature;BME280_humidity;BME280_pressure;Samples;Min_cycle;Max_cycle;Signal;HPM_P1;HPM_P2
2021/01/09 00:01:56;;;;;;;20.80;11.13;;;;;;;;;;4791311;29;20240;-79
2021/01/09 00:04:24;;;;;;;18.10;10.77;;;;;;;;;;4787634;29;20239;-80
2021/01/09 00:06:52;;;;;;;20.27;11.13;;;;;;;;;;4802859;29;20569;-80
2021/01/09 00:09:22;;;;;;;19.53;11.00;;;;;;;;;;4788894;29;20212;-80
2021/01/09 00:11:50;;;;;;;18.50;10.83;;;;;;;;;;4802046;29;20664;-80
2021/01/09 00:14:19;;;;;;;20.27;11.27;;;;;;;;;;4785916;29;20236;-80
2021/01/09 00:16:48;;;;;;;16.23;9.83;;;;;;;;;;4790145;29;20223;-80
2021/01/09 00:19:17;;;;;;;19.80;10.40;;;;;;;;;;4789564;29;20208;-79
2021/01/09 00:21:45;;;;;;;17.93;10.63;;;;;;;;;;4803964;29;20243;-79
2021/01/09 00:24:13;;;;;;;17.40;11.27;;;;;;;;;;4801510;29;20237;-79
2021/01/09 00:26:42;;;;;;;18.43;10.40;;;;;;;;;;4810646;29;20209;-80
2021/01/09 00:29:10;;;;;;;19.13;10.67;;;;;;;;;;4803901;29;20215;-80
2021/01/09 00:31:39;;;;;;;19.33;11.20;;;;;;;;;;4811180;29;20581;-79
2021/01/09 00:34:08;;;;;;;18.83;11.00;;;;;;;;;;4808113;29;20241;-79
2021/01/09 00:36:36;;;;;;;17.90;10.80;;;;;;;;;;4789076;29;20205;-80
2021/01/09 00:39:04;;;;;;;21.90;11.97;;;;;;;;;;4788524;29;20225;-80
2021/01/09 00:41:33;;;;;;;18.10;10.70;;;;;;;;;;4795217;29;20228;-79
2021/01/09 00:44:03;;;;;;;19.37;10.97;;;;;;;;;;4801153;29;20240;-80
2021/01/09 00:46:31;;;;;;;25.07;13.33;;;;;;;;;;4785552;29;20212;-80
2021/01/09 00:49:00;;;;;;;19.60;11.40;;;;;;;;;;4814652;29;20204;-80
2021/01/09 00:51:28;;;;;;;22.70;11.93;;;;;;;;;;4794882;29;20220;-79
2021/01/09 00:53:56;;;;;;;20.13;11.30;;;;;;;;;;4795701;29;20737;-80
2021/01/09 00:56:25;;;;;;;22.00;12.37;;;;;;;;;;4788373;29;20232;-79
2021/01/09 00:58:53;;;;;;;18.80;11.00;;;;;;;;;;4800874;29;20213;-80
2021/01/09 01:01:22;;;;;;;18.30;10.57;;;;;;;;;;4797624;29;20236;-79
2021/01/09 01:03:50;;;;;;;22.23;11.47;;;;;;;;;;4797374;29;20595;-80
2021/01/09 01:06:23;;;;;;;19.60;11.13;;;;;;;;;;4779958;29;20213;-79
2021/01/09 01:08:51;;;;;;;20.43;10.97;;;;;;;;;;4796246;29;20217;-79
2021/01/09 01:11:23;;;;;;;18.67;10.50;;;;;;;;;;4778350;29;20217;-79
2021/01/09 01:13:52;;;;;;;18.23;10.83;;;;;;;;;;4802053;29;20240;-79
2021/01/09 01:16:19;;;;;;;17.63;10.73;;;;;;;;;;4817702;29;20812;-78
2021/01/09 01:18:48;;;;;;;19.20;10.07;;;;;;;;;;4808578;29;20221;-79
2021/01/09 01:21:17;;;;;;;17.30;11.23;;;;;;;;;;4798010;29;20212;-80
2021/01/09 01:23:44;;;;;;;19.37;10.83;;;;;;;;;;4827225;29;20249;-79
2021/01/09 01:26:13;;;;;;;18.97;10.23;;;;;;;;;;4808120;29;20225;-79
2021/01/09 01:28:41;;;;;;;18.00;10.20;;;;;;;;;;4811311;29;20405;-80
2021/01/09 01:31:09;;;;;;;20.43;11.37;;;;;;;;;;4825681;29;20212;-80
2021/01/09 01:33:37;;;;;;;20.97;10.73;;;;;;;;;;4825769;29;20232;-80
2021/01/09 01:36:08;;;;;;;22.63;11.73;;;;;;;;;;4822615;29;20219;-80
2021/01/09 01:38:36;;;;;;;19.27;11.77;;;;;;;;;;4823859;29;20222;-80
2021/01/09 01:41:05;;;;;;;17.87;10.67;;;;;;;;;;4819854;29;20218;-82
2021/01/09 01:43:33;;;;;;;17.37;10.10;;;;;;;;;;4829435;29;20225;-79
2021/01/09 01:46:04;;;;;;;17.47;10.20;;;;;;;;;;4823948;29;20220;-80
2021/01/09 01:48:32;;;;;;;19.77;10.50;;;;;;;;;;4807772;29;20217;-80
2021/01/09 01:51:01;;;;;;;17.83;10.23;;;;;;;;;;4797692;29;20224;-79
2021/01/09 01:53:31;;;;;;;18.27;10.47;;;;;;;;;;4802129;29;20240;-80
2021/01/09 01:55:59;;;;;;;17.53;9.73;;;;;;;;;;4827204;29;20221;-80
2021/01/09 01:58:28;;;;;;;19.27;9.67;;;;;;;;;;4803122;29;20222;-80
2021/01/09 02:00:56;;;;;;;17.77;9.67;;;;;;;;;;4790677;29;20209;-80
2021/01/09 02:03:24;;;;;;;17.47;9.93;;;;;;;;;;4783547;29;20624;-80
2021/01/09 02:05:58;;;;;;;18.13;9.90;;;;;;;;;;4813526;29;20216;-80
2021/01/09 02:08:31;;;;;;;18.33;9.97;;;;;;;;;;4797163;29;20582;-80
2021/01/09 02:11:02;;;;;;;17.33;9.70;;;;;;;;;;4801070;29;20220;-80
2021/01/09 02:13:39;;;;;;;17.53;10.87;;;;;;;;;;4801367;29;20230;-80
2021/01/09 02:16:08;;;;;;;17.07;9.80;;;;;;;;;;4799069;29;20231;-80
2021/01/09 02:18:37;;;;;;;18.77;9.77;;;;;;;;;;4802352;29;20208;-80
2021/01/09 02:21:06;;;;;;;17.00;10.33;;;;;;;;;;4793079;29;20220;-79
2021/01/09 02:23:35;;;;;;;16.33;9.80;;;;;;;;;;4802929;29;20235;-80
2021/01/09 02:26:04;;;;;;;18.37;10.07;;;;;;;;;;4800047;29;20204;-80
2021/01/09 02:28:33;;;;;;;17.43;10.00;;;;;;;;;;4781241;29;20216;-79
2021/01/09 02:31:02;;;;;;;17.27;9.23;;;;;;;;;;4811083;29;20208;-80
2021/01/09 02:33:32;;;;;;;17.07;8.93;;;;;;;;;;4795705;29;20607;-80
2021/01/09 02:36:01;;;;;;;15.10;9.17;;;;;;;;;;4811579;29;20213;-80
2021/01/09 02:38:30;;;;;;;19.10;9.57;;;;;;;;;;4808857;29;20220;-79
2021/01/09 02:41:01;;;;;;;17.70;10.20;;;;;;;;;;4781602;29;20212;-80
2021/01/09 02:43:29;;;;;;;16.03;9.23;;;;;;;;;;4795489;29;20244;-80
2021/01/09 02:45:58;;;;;;;21.73;10.50;;;;;;;;;;4800800;29;20220;-80
2021/01/09 02:48:26;;;;;;;14.90;9.17;;;;;;;;;;4802400;29;20219;-80
2021/01/09 02:50:54;;;;;;;14.47;8.80;;;;;;;;;;4777831;29;20236;-80
2021/01/09 02:53:22;;;;;;;18.27;9.93;;;;;;;;;;4816888;29;20255;-80
2021/01/09 02:55:50;;;;;;;16.23;8.70;;;;;;;;;;4800901;29;20670;-80
2021/01/09 02:58:19;;;;;;;15.30;9.40;;;;;;;;;;4783827;29;20217;-79
2021/01/09 03:00:47;;;;;;;16.53;9.07;;;;;;;;;;4804008;29;20599;-80
2021/01/09 03:03:15;;;;;;;18.90;9.90;;;;;;;;;;4819092;29;20737;-80
2021/01/09 03:05:43;;;;;;;17.37;8.60;;;;;;;;;;4802046;29;20219;-80
2021/01/09 03:08:11;;;;;;;13.73;8.30;;;;;;;;;;4807719;30;20201;-80
2021/01/09 03:10:41;;;;;;;14.43;9.10;;;;;;;;;;4825433;29;20192;-80
2021/01/09 03:13:09;;;;;;;16.27;9.40;;;;;;;;;;4808988;29;20239;-80
2021/01/09 03:15:37;;;;;;;13.13;8.40;;;;;;;;;;4823602;29;20187;-80
2021/01/09 03:18:05;;;;;;;15.17;8.50;;;;;;;;;;4824456;29;20217;-80
2021/01/09 03:20:34;;;;;;;16.43;9.03;;;;;;;;;;4839434;29;20204;-80
2021/01/09 03:23:02;;;;;;;15.00;9.40;;;;;;;;;;4814204;29;20620;-80
2021/01/09 03:25:30;;;;;;;16.53;9.77;;;;;;;;;;4801697;29;20212;-79
2021/01/09 03:27:58;;;;;;;18.57;9.33;;;;;;;;;;4801458;29;20212;-80
2021/01/09 03:30:26;;;;;;;15.57;9.17;;;;;;;;;;4790188;29;20204;-80
2021/01/09 03:32:55;;;;;;;18.07;9.93;;;;;;;;;;4802871;29;20240;-80
2021/01/09 03:35:26;;;;;;;16.67;9.27;;;;;;;;;;4800725;29;20422;-80
2021/01/09 03:37:53;;;;;;;17.30;9.20;;;;;;;;;;4786377;29;20220;-79
2021/01/09 03:40:21;;;;;;;17.73;10.13;;;;;;;;;;4802042;29;20222;-79
2021/01/09 03:42:50;;;;;;;21.77;11.07;;;;;;;;;;4794181;29;20251;-80
2021/01/09 03:45:18;;;;;;;22.27;10.93;;;;;;;;;;4803142;29;20208;-80
2021/01/09 03:47:47;;;;;;;23.27;10.97;;;;;;;;;;4816150;29;20223;-80
2021/01/09 03:50:16;;;;;;;25.40;12.37;;;;;;;;;;4813467;29;20252;-80
2021/01/09 03:52:44;;;;;;;22.53;11.47;;;;;;;;;;4821294;29;20244;-80
2021/01/09 03:55:12;;;;;;;23.07;12.13;;;;;;;;;;4807960;29;20218;-80
2021/01/09 03:57:40;;;;;;;25.27;12.33;;;;;;;;;;4818458;29;20231;-80
2021/01/09 04:00:09;;;;;;;23.67;11.47;;;;;;;;;;4811550;29;20209;-80
2021/01/09 04:02:38;;;;;;;23.50;11.23;;;;;;;;;;4784770;29;20245;-80
2021/01/09 04:05:08;;;;;;;18.63;10.40;;;;;;;;;;4802799;29;20559;-80
2021/01/09 04:07:37;;;;;;;25.27;12.60;;;;;;;;;;4789684;29;20204;-79
2021/01/09 04:10:06;;;;;;;20.23;10.43;;;;;;;;;;4794164;29;20219;-80
2021/01/09 04:12:35;;;;;;;24.53;11.27;;;;;;;;;;4810513;29;20228;-80
2021/01/09 04:15:04;;;;;;;21.33;11.03;;;;;;;;;;4795987;29;20223;-80
2021/01/09 04:17:33;;;;;;;21.43;10.50;;;;;;;;;;4795571;29;20213;-80
2021/01/09 04:20:02;;;;;;;22.60;10.50;;;;;;;;;;4793370;29;20668;-79
2021/01/09 04:22:30;;;;;;;26.60;11.17;;;;;;;;;;4821425;29;20233;-80
2021/01/09 04:24:59;;;;;;;22.93;10.93;;;;;;;;;;4826474;29;20219;-80
2021/01/09 04:27:27;;;;;;;34.63;12.30;;;;;;;;;;4818905;29;20234;-80
2021/01/09 04:29:55;;;;;;;28.23;11.77;;;;;;;;;;4811609;29;20220;-80
2021/01/09 04:32:22;;;;;;;24.43;11.63;;;;;;;;;;4791459;29;20425;-79
2021/01/09 04:34:51;;;;;;;31.97;12.73;;;;;;;;;;4807332;29;20212;-80
2021/01/09 04:37:21;;;;;;;28.80;12.03;;;;;;;;;;4791009;29;20223;-80
2021/01/09 04:39:50;;;;;;;20.90;11.23;;;;;;;;;;4803482;29;20224;-80
2021/01/09 04:42:19;;;;;;;21.30;10.87;;;;;;;;;;4805225;29;20240;-80
2021/01/09 04:44:47;;;;;;;21.43;11.10;;;;;;;;;;4818565;29;20715;-80
2021/01/09 04:47:16;;;;;;;27.90;11.57;;;;;;;;;;4802065;29;20223;-80
2021/01/09 04:49:47;;;;;;;25.40;11.03;;;;;;;;;;4787966;29;20718;-80
2021/01/09 04:52:18;;;;;;;20.63;11.07;;;;;;;;;;4781836;29;20228;-79
2021/01/09 04:54:49;;;;;;;18.80;10.67;;;;;;;;;;4805557;29;20214;-79
2021/01/09 04:57:22;;;;;;;21.80;10.57;;;;;;;;;;4804096;29;20468;-79
2021/01/09 04:59:53;;;;;;;19.60;10.03;;;;;;;;;;4808969;29;20210;-79
2021/01/09 05:02:24;;;;;;;20.63;9.43;;;;;;;;;;4809135;29;20219;-79
2021/01/09 05:04:54;;;;;;;21.63;10.63;;;;;;;;;;4806981;29;20235;-78
2021/01/09 05:07:25;;;;;;;20.07;10.07;;;;;;;;;;4815768;29;20193;-78
2021/01/09 05:10:06;;;;;;;20.07;9.97;;;;;;;;;;4807875;29;20192;-78
2021/01/09 05:12:37;;;;;;;17.70;9.17;;;;;;;;;;4788540;29;20599;-80
2021/01/09 05:15:09;;;;;;;18.60;9.00;;;;;;;;;;4797769;29;20204;-80
2021/01/09 05:17:39;;;;;;;18.07;9.40;;;;;;;;;;4798176;29;20588;-80
2021/01/09 05:20:10;;;;;;;18.20;9.37;;;;;;;;;;4801733;29;20223;-80
2021/01/09 05:22:40;;;;;;;17.23;9.43;;;;;;;;;;4802806;29;20220;-80
2021/01/09 05:25:13;;;;;;;18.63;10.30;;;;;;;;;;4777959;29;20228;-80
2021/01/09 05:27:45;;;;;;;18.83;9.90;;;;;;;;;;4795256;29;20255;-80
2021/01/09 05:30:19;;;;;;;16.40;9.17;;;;;;;;;;4800292;29;20213;-79
2021/01/09 05:32:50;;;;;;;17.20;9.87;;;;;;;;;;4784677;29;20604;-79
2021/01/09 05:35:21;;;;;;;13.70;8.63;;;;;;;;;;4792486;29;20216;-80
2021/01/09 05:37:52;;;;;;;19.77;9.67;;;;;;;;;;4795856;29;20232;-80
2021/01/09 05:40:22;;;;;;;18.03;9.97;;;;;;;;;;4781934;29;20687;-80
2021/01/09 05:42:54;;;;;;;19.37;10.83;;;;;;;;;;4784976;29;20250;-80
2021/01/09 05:45:26;;;;;;;18.03;9.83;;;;;;;;;;4796279;29;20228;-80
2021/01/09 05:47:58;;;;;;;15.53;8.80;;;;;;;;;;4805119;29;20217;-79
2021/01/09 05:50:30;;;;;;;17.63;10.33;;;;;;;;;;4812264;29;20212;-79
2021/01/09 05:53:00;;;;;;;19.67;11.10;;;;;;;;;;4819551;29;20246;-80
2021/01/09 05:55:41;;;;;;;19.27;10.47;;;;;;;;;;4812276;29;20215;-80
2021/01/09 05:58:14;;;;;;;18.00;9.67;;;;;;;;;;4773712;29;20216;-80
2021/01/09 06:00:46;;;;;;;17.87;10.53;;;;;;;;;;4794337;29;20221;-80
2021/01/09 06:03:21;;;;;;;16.13;9.27;;;;;;;;;;4806428;29;20234;-80
2021/01/09 06:05:54;;;;;;;20.03;11.13;;;;;;;;;;4796948;29;20219;-79
2021/01/09 06:08:28;;;;;;;20.70;10.57;;;;;;;;;;4822291;29;20216;-78
2021/01/09 06:11:04;;;;;;;16.87;10.17;;;;;;;;;;4797953;29;20210;-80
2021/01/09 06:13:37;;;;;;;19.40;10.10;;;;;;;;;;4793775;29;20225;-79
2021/01/09 06:16:08;;;;;;;16.60;10.13;;;;;;;;;;4788349;29;20233;-80
2021/01/09 06:18:40;;;;;;;16.93;10.00;;;;;;;;;;4801397;29;20208;-79
2021/01/09 06:21:13;;;;;;;18.47;9.93;;;;;;;;;;4773855;29;20213;-80
2021/01/09 06:23:44;;;;;;;19.73;9.60;;;;;;;;;;4788472;29;20242;-79
2021/01/09 06:26:16;;;;;;;18.07;10.37;;;;;;;;;;4797410;29;20212;-79
2021/01/09 06:28:51;;;;;;;21.00;10.50;;;;;;;;;;4785455;29;20580;-79
2021/01/09 06:31:24;;;;;;;18.77;9.40;;;;;;;;;;4814119;29;20235;-80
2021/01/09 06:33:56;;;;;;;20.73;10.60;;;;;;;;;;4802295;29;20232;-80
2021/01/09 06:36:27;;;;;;;21.77;11.13;;;;;;;;;;4790415;29;20212;-80
2021/01/09 06:38:59;;;;;;;22.67;11.20;;;;;;;;;;4802991;29;20219;-80
2021/01/09 06:41:31;;;;;;;19.77;10.43;;;;;;;;;;4788638;29;20222;-80
2021/01/09 06:44:07;;;;;;;18.83;10.17;;;;;;;;;;4801282;29;20236;-80
2021/01/09 06:46:45;;;;;;;19.17;11.10;;;;;;;;;;4806425;29;20208;-80
2021/01/09 06:49:20;;;;;;;21.13;10.47;;;;;;;;;;4806552;29;20204;-80
2021/01/09 06:52:01;;;;;;;21.50;11.47;;;;;;;;;;4794757;29;20602;-79
2021/01/09 06:54:46;;;;;;;22.10;10.60;;;;;;;;;;4791150;29;20212;-80
2021/01/09 06:57:19;;;;;;;25.27;11.67;;;;;;;;;;4797224;29;20220;-80
2021/01/09 06:59:51;;;;;;;24.27;12.50;;;;;;;;;;4799076;29;20224;-80
2021/01/09 07:02:23;;;;;;;19.40;11.00;;;;;;;;;;4787710;29;20232;-79
2021/01/09 07:05:03;;;;;;;22.67;12.27;;;;;;;;;;4789352;29;20228;-81
2021/01/09 07:07:35;;;;;;;25.03;12.37;;;;;;;;;;4806316;29;20235;-80
2021/01/09 07:10:15;;;;;;;21.40;11.57;;;;;;;;;;4781964;29;20676;-80
2021/01/09 07:12:51;;;;;;;22.03;11.90;;;;;;;;;;4800384;29;20243;-82
2021/01/09 07:15:22;;;;;;;22.83;11.53;;;;;;;;;;4786804;29;20220;-80
2021/01/09 07:17:55;;;;;;;21.13;12.03;;;;;;;;;;4824287;29;20210;-79
2021/01/09 07:20:29;;;;;;;24.07;12.30;;;;;;;;;;4814841;29;20199;-78
2021/01/09 07:23:01;;;;;;;22.63;12.37;;;;;;;;;;4814501;29;20239;-80
2021/01/09 07:25:41;;;;;;;22.27;12.07;;;;;;;;;;4790798;29;20702;-80
2021/01/09 07:28:36;;;;;;;22.03;11.33;;;;;;;;;;4805229;29;20218;-80
2021/01/09 07:31:28;;;;;;;21.23;11.30;;;;;;;;;;4791262;29;20212;-80
2021/01/09 07:34:14;;;;;;;22.60;11.80;;;;;;;;;;4809943;29;20239;-80
2021/01/09 07:36:47;;;;;;;21.83;12.20;;;;;;;;;;4787662;29;20686;-80
2021/01/09 07:39:21;;;;;;;21.63;12.60;;;;;;;;;;4801621;29;20671;-80
2021/01/09 07:41:52;;;;;;;22.20;11.97;;;;;;;;;;4801486;29;20208;-80
2021/01/09 07:44:23;;;;;;;22.63;12.07;;;;;;;;;;4805868;29;20745;-80
2021/01/09 07:46:57;;;;;;;24.73;13.23;;;;;;;;;;4787492;29;20219;-80
2021/01/09 07:49:31;;;;;;;23.27;12.43;;;;;;;;;;4790363;29;20222;-80
2021/01/09 07:52:03;;;;;;;22.10;12.30;;;;;;;;;;4795247;29;20220;-79
2021/01/09 07:54:37;;;;;;;23.50;12.03;;;;;;;;;;4804043;29;20685;-80
2021/01/09 07:57:22;;;;;;;24.43;12.97;;;;;;;;;;4789527;29;20216;-80
2021/01/09 08:00:10;;;;;;;24.47;13.67;;;;;;;;;;4777564;29;20679;-80
2021/01/09 08:02:43;;;;;;;25.20;13.60;;;;;;;;;;4798525;29;20240;-78
2021/01/09 08:05:16;;;;;;;24.93;13.60;;;;;;;;;;4803271;29;20411;-79
2021/01/09 08:07:47;;;;;;;23.27;11.87;;;;;;;;;;4793576;29;20240;-79
2021/01/09 08:10:24;;;;;;;23.23;12.53;;;;;;;;;;4804798;29;20216;-79
2021/01/09 08:12:57;;;;;;;23.27;12.17;;;;;;;;;;4787925;29;20267;-79
2021/01/09 08:15:28;;;;;;;26.63;13.07;;;;;;;;;;4811473;29;20230;-79
2021/01/09 08:18:03;;;;;;;23.27;12.80;;;;;;;;;;4822444;29;20208;-80
2021/01/09 08:20:33;;;;;;;22.83;13.37;;;;;;;;;;4800681;29;20189;-80
2021/01/09 08:23:05;;;;;;;20.83;12.20;;;;;;;;;;4809001;29;20223;-81
2021/01/09 08:25:38;;;;;;;23.70;13.20;;;;;;;;;;4799117;29;20249;-79
2021/01/09 08:28:09;;;;;;;20.30;12.03;;;;;;;;;;4803823;29;20220;-79
2021/01/09 08:30:41;;;;;;;23.53;11.67;;;;;;;;;;4788724;29;20213;-80
2021/01/09 08:33:16;;;;;;;21.63;12.13;;;;;;;;;;4789539;29;20226;-79
2021/01/09 08:35:51;;;;;;;21.27;12.23;;;;;;;;;;4787007;29;20613;-79
2021/01/09 08:38:28;;;;;;;21.80;12.23;;;;;;;;;;4779059;29;20210;-79
2021/01/09 08:40:59;;;;;;;22.93;11.33;;;;;;;;;;4789402;29;20205;-79
2021/01/09 08:43:30;;;;;;;22.90;12.00;;;;;;;;;;4799943;29;20253;-79
2021/01/09 08:46:02;;;;;;;20.87;12.23;;;;;;;;;;4783178;29;20228;-80
2021/01/09 08:48:37;;;;;;;20.50;11.97;;;;;;;;;;4784669;29;20216;-79
2021/01/09 08:51:08;;;;;;;19.63;12.23;;;;;;;;;;4777142;29;20224;-79
2021/01/09 08:53:44;;;;;;;19.07;12.10;;;;;;;;;;4800185;29;20235;-79
2021/01/09 08:56:15;;;;;;;17.83;11.23;;;;;;;;;;4778300;29;20228;-79
2021/01/09 08:58:46;;;;;;;17.00;11.00;;;;;;;;;;4800401;29;20222;-80
2021/01/09 09:01:47;;;;;;;19.87;11.13;;;;;;;;;;4790604;29;20220;-80
2021/01/09 09:04:23;;;;;;;19.70;11.07;;;;;;;;;;4799469;29;20228;-78
2021/01/09 09:06:58;;;;;;;21.13;11.70;;;;;;;;;;4791009;29;22170;-78
2021/01/09 09:09:30;;;;;;;18.37;10.90;;;;;;;;;;4783616;29;20223;-78
2021/01/09 09:12:01;;;;;;;19.27;11.20;;;;;;;;;;4785565;29;20211;-78
2021/01/09 09:14:32;;;;;;;20.73;11.77;;;;;;;;;;4786475;29;20218;-79
2021/01/09 09:17:05;;;;;;;20.73;11.00;;;;;;;;;;4780852;29;20219;-79
2021/01/09 09:19:38;;;;;;;20.27;10.97;;;;;;;;;;4770353;29;20224;-77
2021/01/09 09:22:08;;;;;;;19.10;11.43;;;;;;;;;;4779092;29;20218;-79
2021/01/09 09:24:42;;;;;;;29.40;11.67;;;;;;;;;;4788828;29;20225;-79
2021/01/09 09:27:23;;;;;;;16.73;9.50;;;;;;;;;;4777981;29;20229;-79
2021/01/09 09:30:06;;;;;;;15.77;10.13;;;;;;;;;;4792863;29;20562;-77
2021/01/09 09:32:50;;;;;;;16.60;10.43;;;;;;;;;;4803669;29;20218;-77
2021/01/09 09:35:20;;;;;;;14.87;9.63;;;;;;;;;;4794434;29;20233;-78
2021/01/09 09:37:49;;;;;;;15.50;8.63;;;;;;;;;;4791554;29;20223;-78
2021/01/09 09:40:24;;;;;;;14.50;8.77;;;;;;;;;;4808433;29;20272;-78
2021/01/09 09:46:57;;;;;;;15.17;9.43;;;;;;;;;;4857546;24;20244;-78
2021/01/09 09:49:31;;;;;;;13.70;8.60;;;;;;;;;;4788254;30;20219;-78
2021/01/09 09:52:32;;;;;;;16.57;8.60;;;;;;;;;;4788058;29;20215;-78
2021/01/09 09:55:02;;;;;;;17.10;8.50;;;;;;;;;;4773734;30;20226;-78
2021/01/09 09:57:33;;;;;;;15.40;7.87;;;;;;;;;;4788370;30;20204;-78
2021/01/09 10:00:06;;;;;;;14.40;7.60;;;;;;;;;;4780294;30;20232;-78
2021/01/09 10:02:53;;;;;;;13.17;7.70;;;;;;;;;;4759232;30;20224;-77
2021/01/09 10:05:22;;;;;;;13.47;7.37;;;;;;;;;;4770069;30;20228;-78
2021/01/09 10:07:56;;;;;;;15.70;8.50;;;;;;;;;;4772834;30;20576;-78
2021/01/09 10:10:25;;;;;;;14.83;8.57;;;;;;;;;;4772711;30;20217;-78
2021/01/09 10:16:07;;;;;;;12.57;6.83;;;;;;;;;;5470167;24;20720;-78
2021/01/09 10:18:35;;;;;;;12.77;7.40;;;;;;;;;;4799043;30;20211;-78
2021/01/09 10:21:50;;;;;;;11.93;6.83;;;;;;;;;;4815388;29;20208;-79
2021/01/09 10:24:48;;;;;;;10.77;7.30;;;;;;;;;;4798592;30;20198;-77
2021/01/09 10:27:17;;;;;;;9.87;6.90;;;;;;;;;;4764821;30;20697;-78
2021/01/09 10:29:44;;;;;;;11.00;6.63;;;;;;;;;;4766958;30;20552;-78
2021/01/09 10:32:12;;;;;;;9.70;6.43;;;;;;;;;;4756219;30;20210;-78
2021/01/09 10:34:41;;;;;;;14.93;6.80;;;;;;;;;;4771662;30;20205;-78
2021/01/09 10:37:12;;;;;;;9.97;6.80;;;;;;;;;;4755794;30;20217;-80
2021/01/09 10:39:41;;;;;;;10.90;7.03;;;;;;;;;;4754275;30;20689;-78
2021/01/09 10:45:15;;;;;;;11.33;6.23;;;;;;;;;;4899834;24;20719;-77
2021/01/09 10:47:43;;;;;;;9.80;7.10;;;;;;;;;;4785991;30;20217;-80
2021/01/09 10:50:30;;;;;;;11.13;7.23;;;;;;;;;;4787326;29;20684;-80
2021/01/09 10:52:58;;;;;;;9.23;6.20;;;;;;;;;;4777418;30;20736;-82
2021/01/09 10:55:25;;;;;;;9.90;6.43;;;;;;;;;;4769154;30;20210;-79
2021/01/09 10:57:53;;;;;;;9.67;6.17;;;;;;;;;;4762096;30;20225;-79
2021/01/09 11:00:29;;;;;;;9.40;6.33;;;;;;;;;;4754884;30;20578;-79
2021/01/09 11:02:59;;;;;;;12.20;7.43;;;;;;;;;;4770983;30;20589;-79
2021/01/09 11:05:30;;;;;;;9.60;6.67;;;;;;;;;;4771240;30;20248;-80
2021/01/09 11:07:58;;;;;;;11.40;6.93;;;;;;;;;;4774696;30;20222;-79
2021/01/09 11:10:26;;;;;;;12.07;6.93;;;;;;;;;;4782034;29;20220;-79
2021/01/09 11:13:05;;;;;;;8.40;6.30;;;;;;;;;;4752298;30;20233;-80
2021/01/09 11:15:35;;;;;;;11.90;8.10;;;;;;;;;;4748727;30;20209;-82
2021/01/09 11:18:04;;;;;;;8.83;6.53;;;;;;;;;;4760908;30;20688;-80
2021/01/09 11:20:32;;;;;;;10.43;6.43;;;;;;;;;;4760557;30;20632;-80
2021/01/09 11:23:00;;;;;;;9.90;6.80;;;;;;;;;;4742250;30;20230;-83
2021/01/09 11:25:28;;;;;;;9.17;6.57;;;;;;;;;;4769165;29;20214;-80
2021/01/09 11:27:56;;;;;;;11.17;7.20;;;;;;;;;;4767436;30;20213;-84
2021/01/09 11:30:23;;;;;;;11.23;7.27;;;;;;;;;;4754331;30;20677;-80
2021/01/09 11:32:52;;;;;;;11.77;7.60;;;;;;;;;;4769556;30;20257;-80
2021/01/09 11:35:20;;;;;;;12.03;7.17;;;;;;;;;;4754463;30;20221;-79
2021/01/09 11:37:48;;;;;;;10.03;6.97;;;;;;;;;;4769316;30;20202;-79
2021/01/09 11:40:16;;;;;;;9.70;6.60;;;;;;;;;;4768669;30;20276;-81
2021/01/09 11:42:44;;;;;;;10.97;7.50;;;;;;;;;;4768790;30;20241;-79
2021/01/09 11:45:14;;;;;;;8.70;6.77;;;;;;;;;;4765109;30;20224;-79
2021/01/09 11:47:42;;;;;;;10.30;6.83;;;;;;;;;;4752594;30;20230;-80
2021/01/09 11:50:12;;;;;;;9.67;6.70;;;;;;;;;;4760671;30;20302;-81
2021/01/09 11:52:40;;;;;;;9.40;7.00;;;;;;;;;;4755633;30;20230;-82
2021/01/09 11:55:08;;;;;;;12.20;6.17;;;;;;;;;;4765703;30;20217;-84
2021/01/09 11:57:37;;;;;;;10.13;6.90;;;;;;;;;;4766609;30;20217;-85
2021/01/09 12:00:09;;;;;;;9.60;6.90;;;;;;;;;;4748336;30;20222;-81
2021/01/09 12:02:41;;;;;;;9.63;6.70;;;;;;;;;;4778569;30;20256;-80
2021/01/09 12:05:09;;;;;;;10.03;7.00;;;;;;;;;;4766118;30;20596;-81
2021/01/09 12:07:38;;;;;;;8.50;6.70;;;;;;;;;;4763216;30;20229;-88
2021/01/09 12:10:07;;;;;;;8.13;5.83;;;;;;;;;;4762686;30;20225;-84
2021/01/09 12:12:35;;;;;;;9.40;6.50;;;;;;;;;;4775477;29;20732;-79
2021/01/09 12:15:03;;;;;;;7.90;6.13;;;;;;;;;;4763222;30;20227;-80
2021/01/09 12:17:35;;;;;;;9.40;6.47;;;;;;;;;;4762851;30;20226;-80
2021/01/09 12:20:09;;;;;;;11.53;7.13;;;;;;;;;;4761670;29;20206;-90
2021/01/09 12:22:38;;;;;;;8.57;6.70;;;;;;;;;;4787304;29;20582;-92
2021/01/09 12:25:06;;;;;;;8.97;6.70;;;;;;;;;;4773775;30;20202;-93
2021/01/09 12:27:34;;;;;;;9.50;6.60;;;;;;;;;;4774351;29;20226;-91
2021/01/09 12:30:01;;;;;;;9.97;6.97;;;;;;;;;;4774199;29;20210;-91
2021/01/09 12:32:38;;;;;;;10.90;6.97;;;;;;;;;;4766260;30;20229;-90
2021/01/09 12:35:07;;;;;;;8.83;6.07;;;;;;;;;;4770035;30;20805;-80
2021/01/09 12:37:35;;;;;;;9.27;6.63;;;;;;;;;;4776628;29;20249;-83
2021/01/09 12:40:06;;;;;;;9.07;6.20;;;;;;;;;;4749205;30;20213;-81
2021/01/09 12:42:34;;;;;;;9.17;6.87;;;;;;;;;;4766124;30;20237;-82
2021/01/09 12:45:03;;;;;;;7.80;5.97;;;;;;;;;;4751810;30;20236;-80
2021/01/09 12:47:31;;;;;;;9.07;6.10;;;;;;;;;;4750491;30;20225;-83
2021/01/09 12:49:59;;;;;;;8.27;6.47;;;;;;;;;;4746629;30;20426;-83
2021/01/09 12:52:26;;;;;;;9.17;7.47;;;;;;;;;;4758171;30;20598;-82
2021/01/09 12:54:54;;;;;;;11.63;6.43;;;;;;;;;;4766370;30;20222;-80
2021/01/09 12:57:23;;;;;;;8.77;6.83;;;;;;;;;;4777321;30;20213;-80
2021/01/09 12:59:50;;;;;;;11.60;7.27;;;;;;;;;;4769468;30;20221;-81
2021/01/09 13:02:18;;;;;;;10.10;7.43;;;;;;;;;;4787710;30;20241;-83
2021/01/09 13:04:46;;;;;;;8.63;6.57;;;;;;;;;;4774974;30;20215;-87
2021/01/09 13:07:13;;;;;;;8.63;6.30;;;;;;;;;;4789918;29;20229;-89
2021/01/09 13:09:41;;;;;;;8.50;6.83;;;;;;;;;;4785787;30;20321;-91
2021/01/09 13:12:09;;;;;;;8.53;6.60;;;;;;;;;;4797884;29;20584;-80
2021/01/09 13:14:38;;;;;;;8.70;6.60;;;;;;;;;;4764911;30;20213;-82
2021/01/09 13:17:10;;;;;;;9.33;7.10;;;;;;;;;;4768116;30;20209;-80
2021/01/09 13:19:38;;;;;;;9.43;7.00;;;;;;;;;;4754073;30;20224;-82
2021/01/09 13:22:07;;;;;;;11.00;7.00;;;;;;;;;;4767849;30;20209;-80
2021/01/09 13:24:34;;;;;;;9.97;7.63;;;;;;;;;;4754367;30;20225;-81
2021/01/09 13:27:02;;;;;;;9.20;6.43;;;;;;;;;;4767088;30;20232;-81
2021/01/09 13:29:30;;;;;;;9.57;6.87;;;;;;;;;;4769295;30;20597;-83
2021/01/09 13:31:58;;;;;;;9.40;6.57;;;;;;;;;;4754087;30;20218;-80
2021/01/09 13:34:26;;;;;;;10.63;6.70;;;;;;;;;;4749957;30;20214;-80
2021/01/09 13:36:56;;;;;;;10.27;7.30;;;;;;;;;;4777703;30;20578;-80
2021/01/09 13:39:24;;;;;;;8.73;6.73;;;;;;;;;;4753460;30;20212;-84
2021/01/09 13:41:52;;;;;;;8.77;6.70;;;;;;;;;;4767611;30;20210;-83
2021/01/09 13:44:20;;;;;;;8.70;6.27;;;;;;;;;;4760902;30;20253;-80
2021/01/09 13:46:48;;;;;;;10.10;7.30;;;;;;;;;;4768967;30;20229;-80
2021/01/09 13:49:21;;;;;;;9.83;7.10;;;;;;;;;;4754611;30;20233;-80
2021/01/09 13:53:09;;;;;;;9.87;6.93;;;;;;;;;;4769155;30;20237;-80
2021/01/09 14:06:56;;;;;;;7.63;5.30;;;;;;;;;;5516194;24;20716;-79
2021/01/09 14:09:24;;;;;;;7.87;5.13;;;;;;;;;;4789077;29;20213;-79
2021/01/09 14:11:53;;;;;;;6.77;4.90;;;;;;;;;;4787957;30;20209;-83
2021/01/09 14:14:23;;;;;;;6.63;4.80;;;;;;;;;;4755467;30;20218;-78
2021/01/09 14:16:51;;;;;;;11.10;6.40;;;;;;;;;;4755408;30;20209;-78
2021/01/09 14:19:20;;;;;;;9.03;5.40;;;;;;;;;;4771555;30;20224;-78
2021/01/09 14:21:49;;;;;;;7.50;4.70;;;;;;;;;;4769857;30;20218;-78
2021/01/09 14:24:21;;;;;;;7.67;5.00;;;;;;;;;;4755296;30;20229;-78
2021/01/09 14:26:52;;;;;;;7.63;5.10;;;;;;;;;;4771198;30;20245;-77
2021/01/09 14:29:21;;;;;;;9.87;5.03;;;;;;;;;;4769685;30;20677;-77
2021/01/09 14:31:54;;;;;;;10.97;5.17;;;;;;;;;;4769880;30;20214;-77
2021/01/09 14:34:24;;;;;;;9.33;5.27;;;;;;;;;;4769701;30;20220;-78
2021/01/09 14:36:53;;;;;;;11.03;5.93;;;;;;;;;;4754959;30;20209;-78
2021/01/09 14:39:24;;;;;;;8.93;5.70;;;;;;;;;;4769863;30;20227;-78
2021/01/09 14:41:53;;;;;;;7.43;5.10;;;;;;;;;;4770196;30;20202;-78
2021/01/09 14:44:22;;;;;;;10.30;6.67;;;;;;;;;;4755535;30;20210;-78
2021/01/09 14:46:55;;;;;;;9.67;5.33;;;;;;;;;;4781776;30;20234;-79
2021/01/09 14:49:24;;;;;;;10.80;5.67;;;;;;;;;;4783571;30;20228;-79
2021/01/09 14:51:53;;;;;;;8.30;5.33;;;;;;;;;;4783986;30;20224;-78
2021/01/09 14:57:33;;;;;;;10.87;6.13;;;;;;;;;;5589520;24;20245;-79
2021/01/09 15:00:03;;;;;;;9.87;5.73;;;;;;;;;;4796516;30;20239;-79
2021/01/09 15:05:50;;;;;;;10.80;6.23;;;;;;;;;;5259372;24;20235;-79
2021/01/09 15:08:20;;;;;;;11.67;6.10;;;;;;;;;;4813057;29;20718;-80
2021/01/09 15:10:49;;;;;;;8.97;5.40;;;;;;;;;;4828756;29;20224;-79
2021/01/09 15:13:18;;;;;;;10.07;5.90;;;;;;;;;;4836807;29;20212;-78
2021/01/09 15:15:47;;;;;;;11.83;5.90;;;;;;;;;;4816398;29;20200;-78
2021/01/09 15:18:50;;;;;;;8.67;5.77;;;;;;;;;;4831606;29;20235;-79